• Join FlightAware (Why Join?)
  • Login
  • US Flag 
03:49PM EDT


 

Airport Tracker/Info


-or-


 

Live Flight TrackerFlight Track Log ✈ RPA3901 ✈ 24-Feb-2014 ✈ KIAD - KALB

Flight Track Log - Related Links

Times and Time Zones

All times are in EST time to prevent confusion due to time zone crossing. See the RPA3901 flight status page for this flight to view local times or setup timezone preferences in your user account.

Time Position Orientation Groundspeed Altitude Reporting Facility
EST Latitude Longitude Course Direction KTS MPH feet Rate Location/Type
12:54PM 39.0000 -77.5000 North 200 230 3,500  Level Potomac TRACON
12:55PM 39.0500 -77.5000 360° North 206 237 6,200 2,580 Climbing Potomac TRACON
12:56PM 39.2212 -77.4500 North  Level FlightAware Approximate
12:56PM 39.1000 -77.5000 360° North 215 247 8,700  Level Potomac TRACON
12:57PM 39.3171 -77.4500 North  Level FlightAware Approximate
12:57PM 39.1667 -77.4833 11° North 231 266 10,800  Level Potomac TRACON
12:58PM 39.4131 -77.4500 North  Level FlightAware Approximate
12:59PM 39.5090 -77.4500 North  Level FlightAware Approximate
12:59PM 39.3072 -77.4772 North 273 314 13,200  Level Washington Center
01:00PM 39.3864 -77.4711 North 278 320 14,700 1,320 Climbing Washington Center
01:01PM 39.4658 -77.4678 North 278 320 15,900 600 Climbing Washington Center
01:02PM 39.5511 -77.4619 North 290 334 16,000 60 Climbing Washington Center
01:03PM 39.6406 -77.4519 North 301 346 16,100 780 Climbing New York Center
01:04PM 39.7136 -77.4536 359° North 310 357 17,600 1,320 Climbing New York Center
01:05PM 39.8042 -77.4025 23° Northeast 305 351 18,800 900 Climbing New York Center
01:06PM 39.8861 -77.3508 26° Northeast 323 372 19,400 780 Climbing New York Center
01:07PM 39.9747 -77.2942 26° Northeast 337 388 20,400 1,080 Climbing New York Center
01:08PM 40.0606 -77.2506 21° North 337 388 21,600 1,140 Climbing New York Center
01:09PM 40.1444 -77.2067 22° Northeast 327 376 22,700 1,080 Climbing New York Center
01:10PM 40.2281 -77.1628 22° Northeast 321 369 23,800 1,020 Climbing New York Center
01:11PM 40.3117 -77.1189 22° Northeast 321 369 24,800 600 Climbing New York Center
01:12PM 40.3953 -77.0775 21° North 321 369 25,000 60 Climbing New York Center
01:13PM 40.4808 -77.0333 21° North 321 369 25,000  Level New York Center
01:14PM 40.5731 -76.9872 21° North 326 375 25,000  Level New York Center
01:15PM 40.6611 -76.9375 23° Northeast 332 382 25,000  Level New York Center
01:16PM 40.7553 -76.8886 21° North 343 395 25,000  Level New York Center
01:17PM 40.8494 -76.8422 20° North 348 400 25,000  Level New York Center
01:18PM 40.9458 -76.7903 22° Northeast 361 415 25,000  Level New York Center
01:19PM 41.0422 -76.7383 22° Northeast 366 421 25,000  Level New York Center
01:20PM 41.1364 -76.6914 21° North 361 415 25,000  Level New York Center
01:21PM 41.2297 -76.6581 15° North 355 409 25,000  Level New York Center
01:22PM 41.3256 -76.6114 20° North 355 409 25,000  Level New York Center
01:23PM 41.4200 -76.5586 23° Northeast 355 409 25,000  Level New York Center
01:24PM 41.5036 -76.5103 23° Northeast 360 414 25,000  Level New York Center
01:25PM 41.5997 -76.4575 22° Northeast 365 420 25,000  Level New York Center
01:26PM 41.6939 -76.4044 23° Northeast 365 420 25,000 -180 Level New York Center
01:29PM 41.9139 -76.2764 23° Northeast 366 421 24,400 -300 Descending Boston Center
01:30PM 42.0067 -76.2228 23° Northeast 364 419 24,000 -240 Descending Boston Center
01:31PM 42.0975 -76.1722 22° Northeast 358 412 24,000  Level Boston Center
01:32PM 42.1842 -76.0689 41° Northeast 370 426 24,000  Level Boston Center
01:33PM 42.2239 -75.9372 68° East 377 434 24,000  Level Boston Center
01:34PM 42.2572 -75.8008 72° East 381 438 24,000 -300 Level Boston Center
01:35PM 42.2914 -75.6661 71° East 380 437 23,400 -960 Descending Boston Center
01:36PM 42.3236 -75.5378 71° East 372 428 22,100 -1,320 Descending Boston Center
01:37PM 42.3569 -75.4122 70° East 361 415 20,800 -1,380 Descending Boston Center
01:38PM 42.3897 -75.2786 72° East 372 428 19,400 -1,380 Descending Boston Center
01:39PM 42.4253 -75.1397 71° East 388 447 18,000 -1,500 Descending Boston Center
01:40PM 42.4669 -74.9706 71° East 396 456 16,400 -1,620 Descending Boston Center
01:40PM 42.4808 -74.9150 71° East 393 452 15,700 -1,380 Descending Boston Center
01:41PM 42.4997 -74.8353 72° East 385 443 15,000 -1,380 Descending Boston Center
01:41PM 42.5053 -74.8103 73° East 377 434 14,600 -1,500 Descending Boston Center
01:42PM 42.5339 -74.6953 71° East 376 433 13,500 -1,620 Descending Boston Center
01:42PM 42.5419 -74.6658 70° East 371 427 13,000 -1,380 Descending Boston Center
01:43PM 42.5650 -74.5650 73° East 363 418 12,100 -1,320 Descending Boston Center
01:43PM 42.5708 -74.5364 75° East 358 412 11,700 -1,320 Descending Boston Center
01:44PM 42.5750 -74.4369 87° East 342 394 10,800 -1,320 Descending Boston Center
01:44PM 42.5756 -74.4100 88° East 335 386 10,400 -1,380 Descending Boston Center
01:45PM 42.5767 -74.3144 89° East 326 375 9,400 -1,380 Descending Boston Center
01:45PM 42.5767 -74.2908 90° East 309 356 9,000 -1,380 Descending Boston Center
01:46PM 42.5800 -74.1969 87° East 295 339 8,000 -1,320 Descending Boston Center
01:46PM 42.5800 -74.1817 90° East 284 327 7,700 -1,260 Descending Boston Center
01:47PM 42.5833 -74.0722 88° East 288 331 6,500 -960 Descending Boston Center
01:48PM 42.5869 -73.9803 87° East 288 331 6,000 -540 Descending Boston Center
01:48PM 42.5858 -73.9656 96° East 284 327 6,000  Level Boston Center
01:49PM 42.5911 -73.8794 85° East 272 313 6,000  Level Boston Center
01:49PM 42.5894 -73.8650 99° East 267 307 6,000 -900 Level Boston Center
01:50PM 42.5947 -73.7736 85° East 264 304 5,100 -960 Descending Boston Center
01:50PM 42.5936 -73.7500 94° East 264 304 5,000 -540 Descending Boston Center
01:51PM 42.6008 -73.6758 82° East 262 302 4,600 -720 Descending Boston Center
01:51PM 42.6086 -73.6561 62° Northeast 266 306 4,300 -1,320 Descending Boston Center
01:52PM 42.6675 -73.6033 33° Northeast 248 285 3,000 -900 Descending Boston Center
01:53PM 42.7128 -73.5931 North 213 245 2,800 -420 Descending Boston Center
01:53PM 42.7228 -73.5956 350° North 187 215 2,600 -600 Descending Boston Center
01:54PM 42.7517 -73.6294 319° Northwest 180 207 2,200 -420 Descending Boston Center
01:54PM 42.7517 -73.6489 270° West 158 182 2,200 -540 Level Boston Center
01:55PM 42.7525 -73.6936 271° West 158 182 1,700 -720 Descending Boston Center
01:55PM 42.7506 -73.7008 250° West 127 146 1,500 -600 Descending Boston Center
01:56PM 42.7508 -73.7347 271° West 115 132 1,100 -600 Descending Boston Center
01:56PM 42.7497 -73.7414 257° West 99 114 900 -720 Descending Boston Center
01:57PM 42.7500 -73.7789 271° West 114 131 400 -660 Descending Boston Center